sensor_id;sensor_type;location;lat;lon;timestamp;P1;durP1;ratioP1;P2;durP2;ratioP2
7703;SDS011;3894;49.700;10.770;2023-09-07T00:01:05;6.28;;;3.03;;
7703;SDS011;3894;49.700;10.770;2023-09-07T00:03:31;6.82;;;2.55;;
7703;SDS011;3894;49.700;10.770;2023-09-07T00:05:57;6.95;;;2.80;;
7703;SDS011;3894;49.700;10.770;2023-09-07T00:08:22;5.40;;;2.00;;
7703;SDS011;3894;49.700;10.770;2023-09-07T00:10:49;6.75;;;2.70;;
7703;SDS011;3894;49.700;10.770;2023-09-07T00:13:15;8.02;;;2.97;;
7703;SDS011;3894;49.700;10.770;2023-09-07T00:15:41;6.50;;;3.67;;
7703;SDS011;3894;49.700;10.770;2023-09-07T00:18:07;7.35;;;2.83;;
7703;SDS011;3894;49.700;10.770;2023-09-07T00:20:33;6.38;;;2.25;;
7703;SDS011;3894;49.700;10.770;2023-09-07T00:22:59;6.22;;;2.13;;
7703;SDS011;3894;49.700;10.770;2023-09-07T00:25:28;5.32;;;2.03;;
7703;SDS011;3894;49.700;10.770;2023-09-07T00:27:53;5.93;;;1.90;;
7703;SDS011;3894;49.700;10.770;2023-09-07T00:30:19;6.07;;;1.67;;
7703;SDS011;3894;49.700;10.770;2023-09-07T00:32:45;5.40;;;2.25;;
7703;SDS011;3894;49.700;10.770;2023-09-07T00:35:10;5.53;;;1.95;;
7703;SDS011;3894;49.700;10.770;2023-09-07T00:37:36;4.43;;;1.80;;
7703;SDS011;3894;49.700;10.770;2023-09-07T00:40:03;4.78;;;1.98;;
7703;SDS011;3894;49.700;10.770;2023-09-07T00:42:33;4.30;;;1.58;;
7703;SDS011;3894;49.700;10.770;2023-09-07T00:44:59;4.85;;;2.25;;
7703;SDS011;3894;49.700;10.770;2023-09-07T00:47:24;6.30;;;2.38;;
7703;SDS011;3894;49.700;10.770;2023-09-07T00:49:50;6.70;;;2.33;;
7703;SDS011;3894;49.700;10.770;2023-09-07T00:52:16;5.00;;;1.90;;
7703;SDS011;3894;49.700;10.770;2023-09-07T00:57:09;5.63;;;1.83;;
7703;SDS011;3894;49.700;10.770;2023-09-07T00:59:35;5.00;;;1.73;;
7703;SDS011;3894;49.700;10.770;2023-09-07T01:02:01;4.82;;;1.98;;
7703;SDS011;3894;49.700;10.770;2023-09-07T01:04:26;4.82;;;2.17;;
7703;SDS011;3894;49.700;10.770;2023-09-07T01:06:56;5.82;;;2.25;;
7703;SDS011;3894;49.700;10.770;2023-09-07T01:09:26;6.03;;;2.55;;
7703;SDS011;3894;49.700;10.770;2023-09-07T01:11:55;6.45;;;2.97;;
7703;SDS011;3894;49.700;10.770;2023-09-07T01:14:21;5.70;;;2.42;;
7703;SDS011;3894;49.700;10.770;2023-09-07T01:16:47;7.45;;;2.60;;
7703;SDS011;3894;49.700;10.770;2023-09-07T01:19:13;6.28;;;2.50;;
7703;SDS011;3894;49.700;10.770;2023-09-07T01:21:39;6.80;;;2.75;;
7703;SDS011;3894;49.700;10.770;2023-09-07T01:24:08;5.60;;;2.47;;
7703;SDS011;3894;49.700;10.770;2023-09-07T01:26:35;5.47;;;2.53;;
7703;SDS011;3894;49.700;10.770;2023-09-07T01:29:04;6.22;;;2.83;;
7703;SDS011;3894;49.700;10.770;2023-09-07T01:31:37;6.28;;;2.70;;
7703;SDS011;3894;49.700;10.770;2023-09-07T01:34:03;6.60;;;2.75;;
7703;SDS011;3894;49.700;10.770;2023-09-07T01:36:29;7.90;;;2.72;;
7703;SDS011;3894;49.700;10.770;2023-09-07T01:38:55;6.03;;;2.25;;
7703;SDS011;3894;49.700;10.770;2023-09-07T01:41:20;6.43;;;2.47;;
7703;SDS011;3894;49.700;10.770;2023-09-07T01:43:46;5.95;;;2.88;;
7703;SDS011;3894;49.700;10.770;2023-09-07T01:46:12;8.98;;;2.05;;
7703;SDS011;3894;49.700;10.770;2023-09-07T01:48:37;7.35;;;2.55;;
7703;SDS011;3894;49.700;10.770;2023-09-07T01:51:03;6.20;;;2.30;;
7703;SDS011;3894;49.700;10.770;2023-09-07T01:53:28;5.60;;;2.58;;
7703;SDS011;3894;49.700;10.770;2023-09-07T01:55:54;6.72;;;2.95;;
7703;SDS011;3894;49.700;10.770;2023-09-07T01:58:20;5.90;;;2.60;;
7703;SDS011;3894;49.700;10.770;2023-09-07T02:00:46;6.13;;;3.15;;
7703;SDS011;3894;49.700;10.770;2023-09-07T02:03:12;6.18;;;3.00;;
7703;SDS011;3894;49.700;10.770;2023-09-07T02:05:38;6.18;;;2.92;;
7703;SDS011;3894;49.700;10.770;2023-09-07T02:08:04;5.82;;;2.20;;
7703;SDS011;3894;49.700;10.770;2023-09-07T02:10:30;7.03;;;2.70;;
7703;SDS011;3894;49.700;10.770;2023-09-07T02:12:55;6.82;;;2.67;;
7703;SDS011;3894;49.700;10.770;2023-09-07T02:15:22;6.78;;;3.15;;
7703;SDS011;3894;49.700;10.770;2023-09-07T02:17:48;7.25;;;3.00;;
7703;SDS011;3894;49.700;10.770;2023-09-07T02:20:14;7.47;;;2.85;;
7703;SDS011;3894;49.700;10.770;2023-09-07T02:22:40;6.30;;;2.85;;
7703;SDS011;3894;49.700;10.770;2023-09-07T02:25:06;6.05;;;2.75;;
7703;SDS011;3894;49.700;10.770;2023-09-07T02:27:32;6.50;;;2.95;;
7703;SDS011;3894;49.700;10.770;2023-09-07T02:29:59;6.03;;;3.13;;
7703;SDS011;3894;49.700;10.770;2023-09-07T02:32:24;5.32;;;2.17;;
7703;SDS011;3894;49.700;10.770;2023-09-07T02:34:50;7.13;;;2.78;;
7703;SDS011;3894;49.700;10.770;2023-09-07T02:37:15;6.40;;;2.65;;
7703;SDS011;3894;49.700;10.770;2023-09-07T02:39:41;5.53;;;2.42;;
7703;SDS011;3894;49.700;10.770;2023-09-07T02:42:07;6.25;;;2.40;;
7703;SDS011;3894;49.700;10.770;2023-09-07T02:44:33;6.68;;;2.70;;
7703;SDS011;3894;49.700;10.770;2023-09-07T02:46:59;8.02;;;2.72;;
7703;SDS011;3894;49.700;10.770;2023-09-07T02:49:24;7.30;;;2.47;;
7703;SDS011;3894;49.700;10.770;2023-09-07T02:51:50;11.48;;;3.70;;
7703;SDS011;3894;49.700;10.770;2023-09-07T02:54:16;8.00;;;2.88;;
7703;SDS011;3894;49.700;10.770;2023-09-07T02:56:41;8.18;;;3.20;;
7703;SDS011;3894;49.700;10.770;2023-09-07T02:59:07;7.20;;;3.05;;
7703;SDS011;3894;49.700;10.770;2023-09-07T03:01:33;8.65;;;3.55;;
7703;SDS011;3894;49.700;10.770;2023-09-07T03:03:59;6.97;;;3.63;;
7703;SDS011;3894;49.700;10.770;2023-09-07T03:06:24;8.77;;;4.03;;
7703;SDS011;3894;49.700;10.770;2023-09-07T03:08:50;9.52;;;4.07;;
7703;SDS011;3894;49.700;10.770;2023-09-07T03:11:17;9.15;;;3.78;;
7703;SDS011;3894;49.700;10.770;2023-09-07T03:13:43;8.68;;;3.80;;
7703;SDS011;3894;49.700;10.770;2023-09-07T03:16:08;7.40;;;3.15;;
7703;SDS011;3894;49.700;10.770;2023-09-07T03:18:34;8.43;;;3.63;;
7703;SDS011;3894;49.700;10.770;2023-09-07T03:21:00;6.88;;;3.35;;
7703;SDS011;3894;49.700;10.770;2023-09-07T03:23:31;6.30;;;3.08;;
7703;SDS011;3894;49.700;10.770;2023-09-07T03:25:58;7.20;;;3.08;;
7703;SDS011;3894;49.700;10.770;2023-09-07T03:28:25;5.82;;;2.58;;
7703;SDS011;3894;49.700;10.770;2023-09-07T03:30:52;6.85;;;3.45;;
7703;SDS011;3894;49.700;10.770;2023-09-07T03:33:19;6.20;;;3.20;;
7703;SDS011;3894;49.700;10.770;2023-09-07T03:35:44;6.78;;;3.38;;
7703;SDS011;3894;49.700;10.770;2023-09-07T03:38:10;7.78;;;3.67;;
7703;SDS011;3894;49.700;10.770;2023-09-07T03:40:36;7.57;;;3.47;;
7703;SDS011;3894;49.700;10.770;2023-09-07T03:43:01;7.03;;;3.45;;
7703;SDS011;3894;49.700;10.770;2023-09-07T03:45:27;6.53;;;3.00;;
7703;SDS011;3894;49.700;10.770;2023-09-07T03:47:52;6.07;;;2.72;;
7703;SDS011;3894;49.700;10.770;2023-09-07T03:50:18;7.13;;;3.30;;
7703;SDS011;3894;49.700;10.770;2023-09-07T03:52:44;6.43;;;2.83;;
7703;SDS011;3894;49.700;10.770;2023-09-07T03:55:09;9.18;;;3.28;;
7703;SDS011;3894;49.700;10.770;2023-09-07T03:57:35;6.55;;;2.65;;
7703;SDS011;3894;49.700;10.770;2023-09-07T04:00:01;7.53;;;2.80;;
7703;SDS011;3894;49.700;10.770;2023-09-07T04:02:32;7.30;;;3.10;;
7703;SDS011;3894;49.700;10.770;2023-09-07T04:04:58;6.97;;;2.53;;
7703;SDS011;3894;49.700;10.770;2023-09-07T04:07:26;5.78;;;2.92;;
7703;SDS011;3894;49.700;10.770;2023-09-07T04:09:52;6.50;;;3.55;;
7703;SDS011;3894;49.700;10.770;2023-09-07T04:12:17;7.20;;;3.67;;
7703;SDS011;3894;49.700;10.770;2023-09-07T04:14:43;8.25;;;3.97;;
7703;SDS011;3894;49.700;10.770;2023-09-07T04:17:09;9.40;;;4.47;;
7703;SDS011;3894;49.700;10.770;2023-09-07T04:19:35;6.43;;;3.10;;
7703;SDS011;3894;49.700;10.770;2023-09-07T04:22:01;7.32;;;4.03;;
7703;SDS011;3894;49.700;10.770;2023-09-07T04:24:26;7.32;;;3.55;;
7703;SDS011;3894;49.700;10.770;2023-09-07T04:26:58;9.20;;;3.53;;
7703;SDS011;3894;49.700;10.770;2023-09-07T04:29:28;7.50;;;3.35;;
7703;SDS011;3894;49.700;10.770;2023-09-07T04:31:53;7.50;;;3.67;;
7703;SDS011;3894;49.700;10.770;2023-09-07T04:34:20;8.90;;;3.47;;
7703;SDS011;3894;49.700;10.770;2023-09-07T04:36:46;7.93;;;3.60;;
7703;SDS011;3894;49.700;10.770;2023-09-07T04:39:12;8.30;;;3.30;;
7703;SDS011;3894;49.700;10.770;2023-09-07T04:41:39;6.95;;;3.20;;
7703;SDS011;3894;49.700;10.770;2023-09-07T04:44:05;6.70;;;2.80;;
7703;SDS011;3894;49.700;10.770;2023-09-07T04:46:30;5.95;;;2.70;;
7703;SDS011;3894;49.700;10.770;2023-09-07T04:48:56;6.22;;;2.53;;
7703;SDS011;3894;49.700;10.770;2023-09-07T04:51:21;5.47;;;2.25;;
7703;SDS011;3894;49.700;10.770;2023-09-07T04:53:48;6.57;;;2.92;;
7703;SDS011;3894;49.700;10.770;2023-09-07T04:56:14;5.95;;;2.58;;
7703;SDS011;3894;49.700;10.770;2023-09-07T04:58:41;6.05;;;2.22;;
7703;SDS011;3894;49.700;10.770;2023-09-07T05:01:07;5.85;;;2.45;;
7703;SDS011;3894;49.700;10.770;2023-09-07T05:03:36;6.93;;;3.38;;
7703;SDS011;3894;49.700;10.770;2023-09-07T05:06:03;7.50;;;2.47;;
7703;SDS011;3894;49.700;10.770;2023-09-07T05:08:29;8.18;;;3.22;;
7703;SDS011;3894;49.700;10.770;2023-09-07T05:10:55;6.03;;;2.63;;
7703;SDS011;3894;49.700;10.770;2023-09-07T05:13:22;6.57;;;3.00;;
7703;SDS011;3894;49.700;10.770;2023-09-07T05:15:52;6.82;;;3.10;;
7703;SDS011;3894;49.700;10.770;2023-09-07T05:18:18;8.60;;;3.10;;
7703;SDS011;3894;49.700;10.770;2023-09-07T05:20:44;9.52;;;3.80;;
7703;SDS011;3894;49.700;10.770;2023-09-07T05:23:13;7.85;;;3.88;;
7703;SDS011;3894;49.700;10.770;2023-09-07T05:25:44;12.65;;;3.95;;
7703;SDS011;3894;49.700;10.770;2023-09-07T05:28:12;8.30;;;3.85;;
7703;SDS011;3894;49.700;10.770;2023-09-07T05:30:41;8.18;;;3.78;;
7703;SDS011;3894;49.700;10.770;2023-09-07T05:33:11;6.38;;;3.10;;
7703;SDS011;3894;49.700;10.770;2023-09-07T05:35:37;8.43;;;4.65;;
7703;SDS011;3894;49.700;10.770;2023-09-07T05:38:06;8.68;;;4.22;;
7703;SDS011;3894;49.700;10.770;2023-09-07T05:40:36;8.25;;;3.85;;
7703;SDS011;3894;49.700;10.770;2023-09-07T05:43:03;8.95;;;4.10;;
7703;SDS011;3894;49.700;10.770;2023-09-07T05:45:30;7.75;;;3.92;;
7703;SDS011;3894;49.700;10.770;2023-09-07T05:47:56;9.32;;;4.10;;
7703;SDS011;3894;49.700;10.770;2023-09-07T05:50:22;6.95;;;3.40;;
7703;SDS011;3894;49.700;10.770;2023-09-07T05:52:48;8.40;;;4.07;;
7703;SDS011;3894;49.700;10.770;2023-09-07T05:55:13;8.38;;;3.63;;
7703;SDS011;3894;49.700;10.770;2023-09-07T05:57:39;7.85;;;4.45;;
7703;SDS011;3894;49.700;10.770;2023-09-07T06:00:05;8.00;;;3.50;;
7703;SDS011;3894;49.700;10.770;2023-09-07T06:02:31;9.98;;;4.40;;
7703;SDS011;3894;49.700;10.770;2023-09-07T06:04:56;9.23;;;4.30;;
7703;SDS011;3894;49.700;10.770;2023-09-07T06:07:22;9.95;;;4.22;;
7703;SDS011;3894;49.700;10.770;2023-09-07T06:09:47;8.52;;;3.92;;
7703;SDS011;3894;49.700;10.770;2023-09-07T06:12:13;7.32;;;3.78;;
7703;SDS011;3894;49.700;10.770;2023-09-07T06:14:39;7.20;;;3.58;;
7703;SDS011;3894;49.700;10.770;2023-09-07T06:17:04;7.55;;;3.05;;
7703;SDS011;3894;49.700;10.770;2023-09-07T06:19:30;7.25;;;3.63;;
7703;SDS011;3894;49.700;10.770;2023-09-07T06:21:56;8.93;;;3.33;;
7703;SDS011;3894;49.700;10.770;2023-09-07T06:24:22;7.95;;;3.72;;
7703;SDS011;3894;49.700;10.770;2023-09-07T06:26:47;7.57;;;3.50;;
7703;SDS011;3894;49.700;10.770;2023-09-07T06:29:13;10.68;;;5.47;;
7703;SDS011;3894;49.700;10.770;2023-09-07T06:31:39;7.75;;;4.40;;
7703;SDS011;3894;49.700;10.770;2023-09-07T06:34:04;8.10;;;4.00;;
7703;SDS011;3894;49.700;10.770;2023-09-07T06:36:30;6.97;;;3.25;;
7703;SDS011;3894;49.700;10.770;2023-09-07T06:38:56;8.15;;;3.65;;
7703;SDS011;3894;49.700;10.770;2023-09-07T06:41:21;8.18;;;4.22;;
7703;SDS011;3894;49.700;10.770;2023-09-07T06:43:47;8.95;;;3.85;;
7703;SDS011;3894;49.700;10.770;2023-09-07T06:46:12;9.57;;;3.78;;
7703;SDS011;3894;49.700;10.770;2023-09-07T06:48:38;8.23;;;4.50;;
7703;SDS011;3894;49.700;10.770;2023-09-07T06:51:04;8.10;;;4.53;;
7703;SDS011;3894;49.700;10.770;2023-09-07T06:53:30;8.23;;;3.83;;
7703;SDS011;3894;49.700;10.770;2023-09-07T06:55:57;7.40;;;4.30;;
7703;SDS011;3894;49.700;10.770;2023-09-07T06:58:23;8.93;;;4.97;;
7703;SDS011;3894;49.700;10.770;2023-09-07T07:00:49;9.27;;;4.07;;
7703;SDS011;3894;49.700;10.770;2023-09-07T07:03:14;7.82;;;4.28;;
7703;SDS011;3894;49.700;10.770;2023-09-07T07:05:40;9.32;;;4.63;;
7703;SDS011;3894;49.700;10.770;2023-09-07T07:08:05;6.90;;;3.30;;
7703;SDS011;3894;49.700;10.770;2023-09-07T07:10:31;8.45;;;3.75;;
7703;SDS011;3894;49.700;10.770;2023-09-07T07:12:57;8.45;;;3.88;;
7703;SDS011;3894;49.700;10.770;2023-09-07T07:15:22;8.85;;;4.07;;
7703;SDS011;3894;49.700;10.770;2023-09-07T07:17:48;7.90;;;3.63;;
7703;SDS011;3894;49.700;10.770;2023-09-07T07:20:13;7.05;;;3.70;;
7703;SDS011;3894;49.700;10.770;2023-09-07T07:22:39;6.97;;;3.42;;
7703;SDS011;3894;49.700;10.770;2023-09-07T07:25:05;8.15;;;4.28;;
7703;SDS011;3894;49.700;10.770;2023-09-07T07:27:31;7.05;;;3.75;;
7703;SDS011;3894;49.700;10.770;2023-09-07T07:29:57;6.60;;;3.50;;
7703;SDS011;3894;49.700;10.770;2023-09-07T07:32:24;8.10;;;3.35;;
7703;SDS011;3894;49.700;10.770;2023-09-07T07:34:49;6.72;;;3.45;;
7703;SDS011;3894;49.700;10.770;2023-09-07T07:37:15;6.70;;;3.53;;
7703;SDS011;3894;49.700;10.770;2023-09-07T07:39:40;6.65;;;2.65;;
7703;SDS011;3894;49.700;10.770;2023-09-07T07:42:06;6.72;;;3.40;;
7703;SDS011;3894;49.700;10.770;2023-09-07T07:44:32;6.30;;;3.22;;
7703;SDS011;3894;49.700;10.770;2023-09-07T07:46:57;6.85;;;2.95;;
7703;SDS011;3894;49.700;10.770;2023-09-07T07:49:23;10.20;;;3.33;;
7703;SDS011;3894;49.700;10.770;2023-09-07T07:51:48;5.75;;;2.92;;
7703;SDS011;3894;49.700;10.770;2023-09-07T07:54:14;7.10;;;2.80;;
7703;SDS011;3894;49.700;10.770;2023-09-07T07:56:40;6.15;;;3.00;;
7703;SDS011;3894;49.700;10.770;2023-09-07T07:59:05;7.10;;;3.35;;
7703;SDS011;3894;49.700;10.770;2023-09-07T08:01:31;7.32;;;3.92;;
7703;SDS011;3894;49.700;10.770;2023-09-07T08:03:57;6.53;;;2.95;;
7703;SDS011;3894;49.700;10.770;2023-09-07T08:06:22;7.68;;;3.08;;
7703;SDS011;3894;49.700;10.770;2023-09-07T08:08:48;6.45;;;3.10;;
7703;SDS011;3894;49.700;10.770;2023-09-07T08:11:13;7.20;;;3.45;;
7703;SDS011;3894;49.700;10.770;2023-09-07T08:13:39;7.20;;;2.83;;
7703;SDS011;3894;49.700;10.770;2023-09-07T08:16:05;7.30;;;2.50;;
7703;SDS011;3894;49.700;10.770;2023-09-07T08:18:34;9.27;;;2.70;;
7703;SDS011;3894;49.700;10.770;2023-09-07T08:21:00;5.90;;;3.15;;
7703;SDS011;3894;49.700;10.770;2023-09-07T08:23:26;6.63;;;3.28;;
7703;SDS011;3894;49.700;10.770;2023-09-07T08:25:51;6.85;;;3.28;;
7703;SDS011;3894;49.700;10.770;2023-09-07T08:28:17;6.65;;;2.67;;
7703;SDS011;3894;49.700;10.770;2023-09-07T08:30:43;6.88;;;2.90;;
7703;SDS011;3894;49.700;10.770;2023-09-07T08:33:10;6.00;;;2.90;;
7703;SDS011;3894;49.700;10.770;2023-09-07T08:35:35;6.53;;;2.92;;
7703;SDS011;3894;49.700;10.770;2023-09-07T08:38:08;5.95;;;2.90;;
7703;SDS011;3894;49.700;10.770;2023-09-07T08:40:35;5.88;;;2.95;;
7703;SDS011;3894;49.700;10.770;2023-09-07T08:43:03;7.30;;;2.75;;
7703;SDS011;3894;49.700;10.770;2023-09-07T08:45:31;5.90;;;3.20;;
7703;SDS011;3894;49.700;10.770;2023-09-07T08:48:02;7.50;;;2.92;;
7703;SDS011;3894;49.700;10.770;2023-09-07T08:50:29;6.68;;;2.85;;
7703;SDS011;3894;49.700;10.770;2023-09-07T08:52:56;7.25;;;2.75;;
7703;SDS011;3894;49.700;10.770;2023-09-07T08:55:24;5.95;;;3.00;;
7703;SDS011;3894;49.700;10.770;2023-09-07T08:57:50;7.13;;;3.63;;
7703;SDS011;3894;49.700;10.770;2023-09-07T09:00:16;5.30;;;2.65;;
7703;SDS011;3894;49.700;10.770;2023-09-07T09:02:42;6.25;;;3.40;;
7703;SDS011;3894;49.700;10.770;2023-09-07T09:05:11;7.57;;;3.35;;
7703;SDS011;3894;49.700;10.770;2023-09-07T09:07:39;6.07;;;2.65;;
7703;SDS011;3894;49.700;10.770;2023-09-07T09:10:05;6.85;;;2.72;;
7703;SDS011;3894;49.700;10.770;2023-09-07T09:12:32;6.32;;;3.00;;
7703;SDS011;3894;49.700;10.770;2023-09-07T09:14:58;8.20;;;2.67;;
7703;SDS011;3894;49.700;10.770;2023-09-07T09:17:25;6.55;;;2.97;;
7703;SDS011;3894;49.700;10.770;2023-09-07T09:19:51;7.45;;;3.08;;
7703;SDS011;3894;49.700;10.770;2023-09-07T09:22:16;5.97;;;2.60;;
7703;SDS011;3894;49.700;10.770;2023-09-07T09:24:42;6.68;;;2.70;;
7703;SDS011;3894;49.700;10.770;2023-09-07T09:27:08;6.22;;;2.70;;
7703;SDS011;3894;49.700;10.770;2023-09-07T09:29:34;5.75;;;2.72;;
7703;SDS011;3894;49.700;10.770;2023-09-07T09:32:03;6.95;;;2.58;;
7703;SDS011;3894;49.700;10.770;2023-09-07T09:34:33;6.07;;;3.05;;
7703;SDS011;3894;49.700;10.770;2023-09-07T09:37:01;6.63;;;2.50;;
7703;SDS011;3894;49.700;10.770;2023-09-07T09:39:28;5.60;;;2.58;;
7703;SDS011;3894;49.700;10.770;2023-09-07T09:41:55;6.75;;;2.65;;
7703;SDS011;3894;49.700;10.770;2023-09-07T09:44:24;5.90;;;2.40;;
7703;SDS011;3894;49.700;10.770;2023-09-07T09:46:52;5.88;;;3.05;;
7703;SDS011;3894;49.700;10.770;2023-09-07T09:49:21;5.57;;;2.42;;
7703;SDS011;3894;49.700;10.770;2023-09-07T09:51:50;8.65;;;2.33;;
7703;SDS011;3894;49.700;10.770;2023-09-07T09:54:17;5.82;;;1.92;;
7703;SDS011;3894;49.700;10.770;2023-09-07T09:56:43;6.20;;;3.00;;
7703;SDS011;3894;49.700;10.770;2023-09-07T09:59:11;4.80;;;2.30;;
7703;SDS011;3894;49.700;10.770;2023-09-07T10:01:39;5.35;;;2.42;;
7703;SDS011;3894;49.700;10.770;2023-09-07T10:04:09;6.22;;;2.65;;
7703;SDS011;3894;49.700;10.770;2023-09-07T10:06:36;5.05;;;2.35;;
7703;SDS011;3894;49.700;10.770;2023-09-07T10:09:04;5.10;;;2.22;;
7703;SDS011;3894;49.700;10.770;2023-09-07T10:11:35;5.78;;;2.42;;
7703;SDS011;3894;49.700;10.770;2023-09-07T10:14:03;5.72;;;2.72;;
7703;SDS011;3894;49.700;10.770;2023-09-07T10:16:42;6.40;;;2.50;;
7703;SDS011;3894;49.700;10.770;2023-09-07T10:19:16;6.15;;;2.67;;
7703;SDS011;3894;49.700;10.770;2023-09-07T10:21:43;7.65;;;2.75;;
7703;SDS011;3894;49.700;10.770;2023-09-07T10:24:09;5.75;;;2.20;;
7703;SDS011;3894;49.700;10.770;2023-09-07T10:26:35;5.72;;;2.53;;
7703;SDS011;3894;49.700;10.770;2023-09-07T10:29:01;5.68;;;2.55;;
7703;SDS011;3894;49.700;10.770;2023-09-07T10:31:30;5.72;;;2.50;;
7703;SDS011;3894;49.700;10.770;2023-09-07T10:33:56;5.88;;;2.63;;
7703;SDS011;3894;49.700;10.770;2023-09-07T10:36:33;4.90;;;2.08;;
7703;SDS011;3894;49.700;10.770;2023-09-07T10:39:00;5.15;;;2.40;;
7703;SDS011;3894;49.700;10.770;2023-09-07T10:41:26;7.55;;;2.28;;
7703;SDS011;3894;49.700;10.770;2023-09-07T10:43:53;8.95;;;3.08;;
7703;SDS011;3894;49.700;10.770;2023-09-07T10:46:22;4.65;;;2.13;;
7703;SDS011;3894;49.700;10.770;2023-09-07T10:48:52;7.63;;;2.38;;
7703;SDS011;3894;49.700;10.770;2023-09-07T10:51:21;5.18;;;2.38;;
7703;SDS011;3894;49.700;10.770;2023-09-07T10:53:47;6.35;;;2.30;;
7703;SDS011;3894;49.700;10.770;2023-09-07T10:56:12;5.78;;;2.25;;
7703;SDS011;3894;49.700;10.770;2023-09-07T10:58:38;5.38;;;2.38;;
7703;SDS011;3894;49.700;10.770;2023-09-07T11:01:05;5.85;;;2.33;;
7703;SDS011;3894;49.700;10.770;2023-09-07T11:03:32;6.22;;;2.30;;
7703;SDS011;3894;49.700;10.770;2023-09-07T11:06:10;5.78;;;2.25;;
7703;SDS011;3894;49.700;10.770;2023-09-07T11:08:39;5.32;;;2.28;;
7703;SDS011;3894;49.700;10.770;2023-09-07T11:11:05;4.93;;;2.50;;
7703;SDS011;3894;49.700;10.770;2023-09-07T11:13:31;5.65;;;1.90;;
7703;SDS011;3894;49.700;10.770;2023-09-07T11:15:57;5.45;;;2.40;;
7703;SDS011;3894;49.700;10.770;2023-09-07T11:18:24;6.13;;;2.30;;
7703;SDS011;3894;49.700;10.770;2023-09-07T11:20:50;5.95;;;1.80;;
7703;SDS011;3894;49.700;10.770;2023-09-07T11:23:17;4.70;;;1.90;;
7703;SDS011;3894;49.700;10.770;2023-09-07T11:25:44;5.55;;;2.13;;
7703;SDS011;3894;49.700;10.770;2023-09-07T11:28:12;5.57;;;2.30;;
7703;SDS011;3894;49.700;10.770;2023-09-07T11:30:48;5.40;;;2.22;;
7703;SDS011;3894;49.700;10.770;2023-09-07T11:33:20;4.25;;;2.20;;
7703;SDS011;3894;49.700;10.770;2023-09-07T11:35:46;5.28;;;2.10;;
7703;SDS011;3894;49.700;10.770;2023-09-07T11:38:13;5.32;;;2.38;;
7703;SDS011;3894;49.700;10.770;2023-09-07T11:40:39;6.03;;;2.30;;
7703;SDS011;3894;49.700;10.770;2023-09-07T11:43:09;5.95;;;2.60;;
7703;SDS011;3894;49.700;10.770;2023-09-07T11:45:42;5.68;;;2.15;;
7703;SDS011;3894;49.700;10.770;2023-09-07T11:48:08;5.45;;;1.92;;
7703;SDS011;3894;49.700;10.770;2023-09-07T11:50:35;4.65;;;2.10;;
7703;SDS011;3894;49.700;10.770;2023-09-07T11:53:01;5.45;;;2.10;;
7703;SDS011;3894;49.700;10.770;2023-09-07T11:55:27;5.25;;;2.15;;
7703;SDS011;3894;49.700;10.770;2023-09-07T11:57:53;5.30;;;2.50;;
7703;SDS011;3894;49.700;10.770;2023-09-07T12:00:19;4.90;;;2.00;;
7703;SDS011;3894;49.700;10.770;2023-09-07T12:02:44;6.07;;;2.45;;
7703;SDS011;3894;49.700;10.770;2023-09-07T12:05:11;5.25;;;2.72;;
7703;SDS011;3894;49.700;10.770;2023-09-07T12:07:39;6.05;;;2.95;;
7703;SDS011;3894;49.700;10.770;2023-09-07T12:10:06;5.28;;;2.38;;
7703;SDS011;3894;49.700;10.770;2023-09-07T12:12:36;5.82;;;2.58;;
7703;SDS011;3894;49.700;10.770;2023-09-07T12:15:02;6.30;;;2.58;;
7703;SDS011;3894;49.700;10.770;2023-09-07T12:17:28;5.55;;;2.15;;
7703;SDS011;3894;49.700;10.770;2023-09-07T12:19:54;5.18;;;2.47;;
7703;SDS011;3894;49.700;10.770;2023-09-07T12:22:20;6.25;;;2.60;;
7703;SDS011;3894;49.700;10.770;2023-09-07T12:24:45;7.43;;;3.05;;
7703;SDS011;3894;49.700;10.770;2023-09-07T12:27:11;8.02;;;2.70;;
7703;SDS011;3894;49.700;10.770;2023-09-07T12:29:37;8.80;;;2.53;;
7703;SDS011;3894;49.700;10.770;2023-09-07T12:32:02;4.85;;;2.30;;
7703;SDS011;3894;49.700;10.770;2023-09-07T12:34:28;4.90;;;2.78;;
7703;SDS011;3894;49.700;10.770;2023-09-07T12:36:53;6.57;;;2.67;;
7703;SDS011;3894;49.700;10.770;2023-09-07T12:39:19;5.32;;;2.30;;
7703;SDS011;3894;49.700;10.770;2023-09-07T12:41:44;5.72;;;2.33;;
7703;SDS011;3894;49.700;10.770;2023-09-07T12:44:10;5.63;;;2.28;;
7703;SDS011;3894;49.700;10.770;2023-09-07T12:46:35;5.32;;;2.35;;
7703;SDS011;3894;49.700;10.770;2023-09-07T12:49:02;4.90;;;2.20;;
7703;SDS011;3894;49.700;10.770;2023-09-07T12:51:28;6.05;;;2.35;;
7703;SDS011;3894;49.700;10.770;2023-09-07T12:53:53;6.10;;;2.42;;
7703;SDS011;3894;49.700;10.770;2023-09-07T12:56:19;6.05;;;2.70;;
7703;SDS011;3894;49.700;10.770;2023-09-07T12:58:44;5.78;;;2.20;;
7703;SDS011;3894;49.700;10.770;2023-09-07T13:01:10;6.07;;;2.30;;
7703;SDS011;3894;49.700;10.770;2023-09-07T13:03:40;6.20;;;2.40;;
7703;SDS011;3894;49.700;10.770;2023-09-07T13:06:06;5.35;;;2.33;;
7703;SDS011;3894;49.700;10.770;2023-09-07T13:08:31;5.07;;;2.33;;
7703;SDS011;3894;49.700;10.770;2023-09-07T13:10:57;6.68;;;2.20;;
7703;SDS011;3894;49.700;10.770;2023-09-07T13:13:23;6.47;;;2.45;;
7703;SDS011;3894;49.700;10.770;2023-09-07T13:15:51;4.78;;;2.08;;
7703;SDS011;3894;49.700;10.770;2023-09-07T13:18:16;5.03;;;2.25;;
7703;SDS011;3894;49.700;10.770;2023-09-07T13:20:42;5.63;;;2.50;;
7703;SDS011;3894;49.700;10.770;2023-09-07T13:23:07;5.18;;;2.45;;
7703;SDS011;3894;49.700;10.770;2023-09-07T13:25:33;6.43;;;2.70;;
7703;SDS011;3894;49.700;10.770;2023-09-07T13:27:59;7.43;;;2.55;;
7703;SDS011;3894;49.700;10.770;2023-09-07T13:30:24;5.72;;;1.98;;
7703;SDS011;3894;49.700;10.770;2023-09-07T13:32:50;6.47;;;2.20;;
7703;SDS011;3894;49.700;10.770;2023-09-07T13:35:15;5.15;;;2.10;;
7703;SDS011;3894;49.700;10.770;2023-09-07T13:37:41;5.13;;;1.90;;
7703;SDS011;3894;49.700;10.770;2023-09-07T13:40:07;5.47;;;2.50;;
7703;SDS011;3894;49.700;10.770;2023-09-07T13:42:33;5.53;;;2.42;;
7703;SDS011;3894;49.700;10.770;2023-09-07T13:44:59;6.15;;;2.10;;
7703;SDS011;3894;49.700;10.770;2023-09-07T13:47:24;6.55;;;2.30;;
7703;SDS011;3894;49.700;10.770;2023-09-07T13:49:50;5.85;;;1.95;;
7703;SDS011;3894;49.700;10.770;2023-09-07T13:52:16;5.43;;;2.00;;
7703;SDS011;3894;49.700;10.770;2023-09-07T13:54:41;5.32;;;2.10;;
7703;SDS011;3894;49.700;10.770;2023-09-07T13:57:07;4.57;;;2.03;;
7703;SDS011;3894;49.700;10.770;2023-09-07T13:59:33;5.03;;;1.83;;
7703;SDS011;3894;49.700;10.770;2023-09-07T14:01:59;5.10;;;1.95;;
7703;SDS011;3894;49.700;10.770;2023-09-07T14:04:25;5.50;;;2.00;;
7703;SDS011;3894;49.700;10.770;2023-09-07T14:06:52;6.47;;;2.25;;
7703;SDS011;3894;49.700;10.770;2023-09-07T14:09:17;5.47;;;1.85;;
7703;SDS011;3894;49.700;10.770;2023-09-07T14:11:43;5.05;;;2.08;;
7703;SDS011;3894;49.700;10.770;2023-09-07T14:14:09;5.68;;;2.05;;
7703;SDS011;3894;49.700;10.770;2023-09-07T14:16:35;4.55;;;1.92;;
7703;SDS011;3894;49.700;10.770;2023-09-07T14:19:01;5.00;;;2.08;;
7703;SDS011;3894;49.700;10.770;2023-09-07T14:21:26;6.18;;;2.10;;
7703;SDS011;3894;49.700;10.770;2023-09-07T14:23:52;5.10;;;1.90;;
7703;SDS011;3894;49.700;10.770;2023-09-07T14:26:18;6.05;;;1.95;;
7703;SDS011;3894;49.700;10.770;2023-09-07T14:28:43;4.97;;;2.10;;
7703;SDS011;3894;49.700;10.770;2023-09-07T14:31:09;6.32;;;2.50;;
7703;SDS011;3894;49.700;10.770;2023-09-07T14:33:35;5.20;;;2.53;;
7703;SDS011;3894;49.700;10.770;2023-09-07T14:36:04;5.07;;;1.95;;
7703;SDS011;3894;49.700;10.770;2023-09-07T14:38:33;4.60;;;1.80;;
7703;SDS011;3894;49.700;10.770;2023-09-07T14:41:05;5.25;;;2.30;;
7703;SDS011;3894;49.700;10.770;2023-09-07T14:43:31;5.45;;;2.00;;
7703;SDS011;3894;49.700;10.770;2023-09-07T14:45:56;5.75;;;2.10;;
7703;SDS011;3894;49.700;10.770;2023-09-07T14:48:22;5.60;;;2.20;;
7703;SDS011;3894;49.700;10.770;2023-09-07T14:50:48;6.20;;;2.20;;
7703;SDS011;3894;49.700;10.770;2023-09-07T14:53:13;5.50;;;2.08;;
7703;SDS011;3894;49.700;10.770;2023-09-07T14:55:39;5.90;;;2.17;;
7703;SDS011;3894;49.700;10.770;2023-09-07T14:58:05;4.97;;;2.03;;